sensor_id;sensor_type;location;lat;lon;timestamp;P1;durP1;ratioP1;P2;durP2;ratioP2
25717;SDS011;13574;52.040;5.692;2023-04-10T00:02:08;22.42;;;15.07;;
25717;SDS011;13574;52.040;5.692;2023-04-10T00:04:34;21.48;;;14.65;;
25717;SDS011;13574;52.040;5.692;2023-04-10T00:06:59;22.33;;;14.40;;
25717;SDS011;13574;52.040;5.692;2023-04-10T00:09:25;21.80;;;14.23;;
25717;SDS011;13574;52.040;5.692;2023-04-10T00:11:52;19.02;;;13.45;;
25717;SDS011;13574;52.040;5.692;2023-04-10T00:14:18;21.67;;;13.55;;
25717;SDS011;13574;52.040;5.692;2023-04-10T00:16:47;20.17;;;13.43;;
25717;SDS011;13574;52.040;5.692;2023-04-10T00:19:13;17.60;;;12.13;;
25717;SDS011;13574;52.040;5.692;2023-04-10T00:21:39;19.30;;;12.38;;
25717;SDS011;13574;52.040;5.692;2023-04-10T00:24:05;18.40;;;12.35;;
25717;SDS011;13574;52.040;5.692;2023-04-10T00:26:31;17.67;;;12.27;;
25717;SDS011;13574;52.040;5.692;2023-04-10T00:28:56;18.33;;;12.35;;
25717;SDS011;13574;52.040;5.692;2023-04-10T00:31:22;18.40;;;12.13;;
25717;SDS011;13574;52.040;5.692;2023-04-10T00:33:48;20.70;;;13.25;;
25717;SDS011;13574;52.040;5.692;2023-04-10T00:36:13;19.23;;;11.38;;
25717;SDS011;13574;52.040;5.692;2023-04-10T00:38:39;16.42;;;10.65;;
25717;SDS011;13574;52.040;5.692;2023-04-10T00:41:05;17.83;;;10.93;;
25717;SDS011;13574;52.040;5.692;2023-04-10T00:43:31;14.63;;;9.50;;
25717;SDS011;13574;52.040;5.692;2023-04-10T00:45:57;15.90;;;10.43;;
25717;SDS011;13574;52.040;5.692;2023-04-10T00:48:23;14.73;;;9.55;;
25717;SDS011;13574;52.040;5.692;2023-04-10T00:50:49;15.18;;;10.13;;
25717;SDS011;13574;52.040;5.692;2023-04-10T00:53:15;15.95;;;10.35;;
25717;SDS011;13574;52.040;5.692;2023-04-10T00:55:41;18.30;;;10.57;;
25717;SDS011;13574;52.040;5.692;2023-04-10T00:58:07;17.95;;;10.38;;
25717;SDS011;13574;52.040;5.692;2023-04-10T01:00:38;14.70;;;9.27;;
25717;SDS011;13574;52.040;5.692;2023-04-10T01:03:05;15.43;;;9.88;;
25717;SDS011;13574;52.040;5.692;2023-04-10T01:05:33;15.68;;;9.93;;
25717;SDS011;13574;52.040;5.692;2023-04-10T01:10:43;13.95;;;9.73;;
25717;SDS011;13574;52.040;5.692;2023-04-10T01:13:24;14.40;;;9.13;;
25717;SDS011;13574;52.040;5.692;2023-04-10T01:18:47;13.13;;;8.80;;
25717;SDS011;13574;52.040;5.692;2023-04-10T01:21:21;13.55;;;8.80;;
25717;SDS011;13574;52.040;5.692;2023-04-10T01:24:13;16.33;;;9.63;;
25717;SDS011;13574;52.040;5.692;2023-04-10T01:29:34;15.25;;;9.63;;
25717;SDS011;13574;52.040;5.692;2023-04-10T01:32:10;14.15;;;8.93;;
25717;SDS011;13574;52.040;5.692;2023-04-10T01:34:53;14.60;;;9.18;;
25717;SDS011;13574;52.040;5.692;2023-04-10T01:37:22;15.85;;;9.07;;
25717;SDS011;13574;52.040;5.692;2023-04-10T01:40:02;12.65;;;8.32;;
25717;SDS011;13574;52.040;5.692;2023-04-10T01:42:31;14.63;;;8.50;;
25717;SDS011;13574;52.040;5.692;2023-04-10T01:45:03;12.48;;;8.68;;
25717;SDS011;13574;52.040;5.692;2023-04-10T01:47:32;14.43;;;8.65;;
25717;SDS011;13574;52.040;5.692;2023-04-10T01:49:58;13.45;;;9.10;;
25717;SDS011;13574;52.040;5.692;2023-04-10T01:52:26;15.15;;;9.25;;
25717;SDS011;13574;52.040;5.692;2023-04-10T01:54:53;13.52;;;8.75;;
25717;SDS011;13574;52.040;5.692;2023-04-10T01:57:19;14.25;;;9.07;;
25717;SDS011;13574;52.040;5.692;2023-04-10T01:59:46;14.15;;;9.18;;
25717;SDS011;13574;52.040;5.692;2023-04-10T02:02:12;13.93;;;8.90;;
25717;SDS011;13574;52.040;5.692;2023-04-10T02:04:37;15.07;;;9.13;;
25717;SDS011;13574;52.040;5.692;2023-04-10T02:07:06;14.68;;;8.77;;
25717;SDS011;13574;52.040;5.692;2023-04-10T02:12:44;12.10;;;8.77;;
25717;SDS011;13574;52.040;5.692;2023-04-10T02:15:18;12.75;;;9.13;;
25717;SDS011;13574;52.040;5.692;2023-04-10T02:17:45;13.45;;;8.88;;
25717;SDS011;13574;52.040;5.692;2023-04-10T02:20:12;14.80;;;9.40;;
25717;SDS011;13574;52.040;5.692;2023-04-10T02:22:39;14.43;;;9.45;;
25717;SDS011;13574;52.040;5.692;2023-04-10T02:25:10;13.20;;;8.68;;
25717;SDS011;13574;52.040;5.692;2023-04-10T02:27:36;11.68;;;8.23;;
25717;SDS011;13574;52.040;5.692;2023-04-10T02:30:02;12.52;;;8.00;;
25717;SDS011;13574;52.040;5.692;2023-04-10T02:32:29;15.30;;;9.18;;
25717;SDS011;13574;52.040;5.692;2023-04-10T02:34:55;13.30;;;8.43;;
25717;SDS011;13574;52.040;5.692;2023-04-10T02:37:21;15.48;;;8.75;;
25717;SDS011;13574;52.040;5.692;2023-04-10T02:39:47;13.20;;;9.05;;
25717;SDS011;13574;52.040;5.692;2023-04-10T02:42:13;13.52;;;8.65;;
25717;SDS011;13574;52.040;5.692;2023-04-10T02:44:39;13.23;;;8.43;;
25717;SDS011;13574;52.040;5.692;2023-04-10T02:47:05;13.07;;;8.38;;
25717;SDS011;13574;52.040;5.692;2023-04-10T02:49:31;13.63;;;8.85;;
25717;SDS011;13574;52.040;5.692;2023-04-10T02:51:58;12.18;;;8.38;;
25717;SDS011;13574;52.040;5.692;2023-04-10T02:54:24;13.68;;;8.98;;
25717;SDS011;13574;52.040;5.692;2023-04-10T02:56:50;15.85;;;9.45;;
25717;SDS011;13574;52.040;5.692;2023-04-10T02:59:16;16.38;;;9.40;;
25717;SDS011;13574;52.040;5.692;2023-04-10T03:01:42;13.40;;;8.77;;
25717;SDS011;13574;52.040;5.692;2023-04-10T03:04:10;14.07;;;9.27;;
25717;SDS011;13574;52.040;5.692;2023-04-10T03:06:35;14.00;;;9.13;;
25717;SDS011;13574;52.040;5.692;2023-04-10T03:09:01;15.55;;;8.95;;
25717;SDS011;13574;52.040;5.692;2023-04-10T03:11:27;14.82;;;8.80;;
25717;SDS011;13574;52.040;5.692;2023-04-10T03:13:52;14.23;;;8.75;;
25717;SDS011;13574;52.040;5.692;2023-04-10T03:16:18;13.57;;;8.75;;
25717;SDS011;13574;52.040;5.692;2023-04-10T03:18:44;12.40;;;8.27;;
25717;SDS011;13574;52.040;5.692;2023-04-10T03:21:10;15.45;;;9.20;;
25717;SDS011;13574;52.040;5.692;2023-04-10T03:23:36;13.93;;;8.73;;
25717;SDS011;13574;52.040;5.692;2023-04-10T03:26:02;12.85;;;8.77;;
25717;SDS011;13574;52.040;5.692;2023-04-10T03:28:28;13.80;;;9.20;;
25717;SDS011;13574;52.040;5.692;2023-04-10T03:30:54;12.63;;;8.75;;
25717;SDS011;13574;52.040;5.692;2023-04-10T03:33:20;15.13;;;9.05;;
25717;SDS011;13574;52.040;5.692;2023-04-10T03:35:46;12.75;;;8.50;;
25717;SDS011;13574;52.040;5.692;2023-04-10T03:38:12;14.13;;;8.68;;
25717;SDS011;13574;52.040;5.692;2023-04-10T03:40:39;15.95;;;8.68;;
25717;SDS011;13574;52.040;5.692;2023-04-10T03:43:04;15.35;;;8.93;;
25717;SDS011;13574;52.040;5.692;2023-04-10T03:45:30;14.60;;;8.88;;
25717;SDS011;13574;52.040;5.692;2023-04-10T03:47:55;14.45;;;9.10;;
25717;SDS011;13574;52.040;5.692;2023-04-10T03:50:22;15.15;;;9.30;;
25717;SDS011;13574;52.040;5.692;2023-04-10T03:52:48;14.57;;;9.25;;
25717;SDS011;13574;52.040;5.692;2023-04-10T03:55:14;15.45;;;8.80;;
25717;SDS011;13574;52.040;5.692;2023-04-10T03:57:43;13.70;;;8.52;;
25717;SDS011;13574;52.040;5.692;2023-04-10T04:00:10;15.07;;;8.65;;
25717;SDS011;13574;52.040;5.692;2023-04-10T04:02:37;12.57;;;8.35;;
25717;SDS011;13574;52.040;5.692;2023-04-10T04:05:02;14.65;;;8.70;;
25717;SDS011;13574;52.040;5.692;2023-04-10T04:07:28;13.60;;;8.73;;
25717;SDS011;13574;52.040;5.692;2023-04-10T04:09:54;13.50;;;8.50;;
25717;SDS011;13574;52.040;5.692;2023-04-10T04:12:21;13.55;;;9.27;;
25717;SDS011;13574;52.040;5.692;2023-04-10T04:14:46;13.68;;;9.40;;
25717;SDS011;13574;52.040;5.692;2023-04-10T04:17:12;16.67;;;8.77;;
25717;SDS011;13574;52.040;5.692;2023-04-10T04:19:37;13.95;;;8.70;;
25717;SDS011;13574;52.040;5.692;2023-04-10T04:22:03;14.05;;;8.95;;
25717;SDS011;13574;52.040;5.692;2023-04-10T04:24:29;14.43;;;9.43;;
25717;SDS011;13574;52.040;5.692;2023-04-10T04:26:54;13.82;;;8.73;;
25717;SDS011;13574;52.040;5.692;2023-04-10T04:29:21;15.32;;;9.07;;
25717;SDS011;13574;52.040;5.692;2023-04-10T04:31:47;14.70;;;8.80;;
25717;SDS011;13574;52.040;5.692;2023-04-10T04:34:13;14.38;;;8.73;;
25717;SDS011;13574;52.040;5.692;2023-04-10T04:36:40;28.48;;;9.65;;
25717;SDS011;13574;52.040;5.692;2023-04-10T04:39:06;16.58;;;8.90;;
25717;SDS011;13574;52.040;5.692;2023-04-10T04:41:31;15.50;;;9.48;;
25717;SDS011;13574;52.040;5.692;2023-04-10T04:43:58;14.52;;;9.05;;
25717;SDS011;13574;52.040;5.692;2023-04-10T04:46:25;15.60;;;9.18;;
25717;SDS011;13574;52.040;5.692;2023-04-10T04:48:51;16.67;;;9.40;;
25717;SDS011;13574;52.040;5.692;2023-04-10T04:51:17;14.52;;;9.30;;
25717;SDS011;13574;52.040;5.692;2023-04-10T04:53:42;14.90;;;9.20;;
25717;SDS011;13574;52.040;5.692;2023-04-10T04:56:08;13.43;;;9.00;;
25717;SDS011;13574;52.040;5.692;2023-04-10T04:58:34;14.13;;;8.90;;
25717;SDS011;13574;52.040;5.692;2023-04-10T05:00:59;13.90;;;8.38;;
25717;SDS011;13574;52.040;5.692;2023-04-10T05:03:25;16.35;;;9.38;;
25717;SDS011;13574;52.040;5.692;2023-04-10T05:05:52;14.27;;;8.98;;
25717;SDS011;13574;52.040;5.692;2023-04-10T05:08:18;16.25;;;9.18;;
25717;SDS011;13574;52.040;5.692;2023-04-10T05:10:44;15.05;;;9.73;;
25717;SDS011;13574;52.040;5.692;2023-04-10T05:13:10;15.18;;;9.27;;
25717;SDS011;13574;52.040;5.692;2023-04-10T05:15:36;14.52;;;9.07;;
25717;SDS011;13574;52.040;5.692;2023-04-10T05:18:03;18.17;;;9.30;;
25717;SDS011;13574;52.040;5.692;2023-04-10T05:20:29;15.50;;;9.63;;
25717;SDS011;13574;52.040;5.692;2023-04-10T05:22:55;14.32;;;8.93;;
25717;SDS011;13574;52.040;5.692;2023-04-10T05:25:22;14.63;;;8.95;;
25717;SDS011;13574;52.040;5.692;2023-04-10T05:27:47;14.90;;;9.57;;
25717;SDS011;13574;52.040;5.692;2023-04-10T05:30:13;13.95;;;8.77;;
25717;SDS011;13574;52.040;5.692;2023-04-10T05:32:39;17.10;;;9.00;;
25717;SDS011;13574;52.040;5.692;2023-04-10T05:35:05;14.75;;;8.75;;
25717;SDS011;13574;52.040;5.692;2023-04-10T05:37:31;15.55;;;9.23;;
25717;SDS011;13574;52.040;5.692;2023-04-10T05:39:57;15.73;;;9.88;;
25717;SDS011;13574;52.040;5.692;2023-04-10T05:42:23;15.52;;;9.40;;
25717;SDS011;13574;52.040;5.692;2023-04-10T05:44:49;15.02;;;9.02;;
25717;SDS011;13574;52.040;5.692;2023-04-10T05:47:15;13.30;;;8.63;;
25717;SDS011;13574;52.040;5.692;2023-04-10T05:49:41;13.52;;;8.55;;
25717;SDS011;13574;52.040;5.692;2023-04-10T05:52:06;14.60;;;8.98;;
25717;SDS011;13574;52.040;5.692;2023-04-10T05:54:32;13.23;;;8.50;;
25717;SDS011;13574;52.040;5.692;2023-04-10T05:56:58;14.52;;;8.63;;
25717;SDS011;13574;52.040;5.692;2023-04-10T05:59:24;16.38;;;8.95;;
25717;SDS011;13574;52.040;5.692;2023-04-10T06:01:49;14.30;;;8.75;;
25717;SDS011;13574;52.040;5.692;2023-04-10T06:04:15;14.07;;;8.85;;
25717;SDS011;13574;52.040;5.692;2023-04-10T06:06:41;13.93;;;8.90;;
25717;SDS011;13574;52.040;5.692;2023-04-10T06:09:07;14.00;;;8.45;;
25717;SDS011;13574;52.040;5.692;2023-04-10T06:11:32;14.80;;;8.98;;
25717;SDS011;13574;52.040;5.692;2023-04-10T06:13:58;14.45;;;8.57;;
25717;SDS011;13574;52.040;5.692;2023-04-10T06:16:23;15.27;;;8.77;;
25717;SDS011;13574;52.040;5.692;2023-04-10T06:18:49;13.65;;;8.30;;
25717;SDS011;13574;52.040;5.692;2023-04-10T06:21:16;13.52;;;8.63;;
25717;SDS011;13574;52.040;5.692;2023-04-10T06:23:42;14.32;;;8.38;;
25717;SDS011;13574;52.040;5.692;2023-04-10T06:26:07;13.93;;;8.70;;
25717;SDS011;13574;52.040;5.692;2023-04-10T06:28:33;14.07;;;8.40;;
25717;SDS011;13574;52.040;5.692;2023-04-10T06:30:59;15.05;;;8.95;;
25717;SDS011;13574;52.040;5.692;2023-04-10T06:33:27;13.50;;;8.88;;
25717;SDS011;13574;52.040;5.692;2023-04-10T06:35:53;11.77;;;8.30;;
25717;SDS011;13574;52.040;5.692;2023-04-10T06:38:18;12.80;;;8.70;;
25717;SDS011;13574;52.040;5.692;2023-04-10T06:40:44;13.95;;;8.73;;
25717;SDS011;13574;52.040;5.692;2023-04-10T06:43:10;14.65;;;9.60;;
25717;SDS011;13574;52.040;5.692;2023-04-10T06:45:35;14.15;;;8.68;;
25717;SDS011;13574;52.040;5.692;2023-04-10T06:48:01;14.30;;;8.60;;
25717;SDS011;13574;52.040;5.692;2023-04-10T06:50:27;12.85;;;8.55;;
25717;SDS011;13574;52.040;5.692;2023-04-10T06:52:52;12.68;;;8.25;;
25717;SDS011;13574;52.040;5.692;2023-04-10T06:55:20;12.48;;;8.75;;
25717;SDS011;13574;52.040;5.692;2023-04-10T06:57:46;12.43;;;7.95;;
25717;SDS011;13574;52.040;5.692;2023-04-10T07:00:11;13.05;;;8.85;;
25717;SDS011;13574;52.040;5.692;2023-04-10T07:02:37;12.32;;;8.32;;
25717;SDS011;13574;52.040;5.692;2023-04-10T07:05:03;11.82;;;7.80;;
25717;SDS011;13574;52.040;5.692;2023-04-10T07:07:29;11.65;;;7.75;;
25717;SDS011;13574;52.040;5.692;2023-04-10T07:09:55;14.80;;;8.68;;
25717;SDS011;13574;52.040;5.692;2023-04-10T07:12:22;11.90;;;8.40;;
25717;SDS011;13574;52.040;5.692;2023-04-10T07:14:47;13.30;;;8.30;;
25717;SDS011;13574;52.040;5.692;2023-04-10T07:17:13;12.70;;;8.27;;
25717;SDS011;13574;52.040;5.692;2023-04-10T07:19:39;12.93;;;8.23;;
25717;SDS011;13574;52.040;5.692;2023-04-10T07:22:05;12.15;;;8.20;;
25717;SDS011;13574;52.040;5.692;2023-04-10T07:24:31;12.27;;;8.65;;
25717;SDS011;13574;52.040;5.692;2023-04-10T07:26:56;12.93;;;8.63;;
25717;SDS011;13574;52.040;5.692;2023-04-10T07:29:22;12.30;;;8.63;;
25717;SDS011;13574;52.040;5.692;2023-04-10T07:31:48;13.90;;;8.65;;
25717;SDS011;13574;52.040;5.692;2023-04-10T07:34:14;12.20;;;8.38;;
25717;SDS011;13574;52.040;5.692;2023-04-10T07:36:40;12.93;;;8.43;;
25717;SDS011;13574;52.040;5.692;2023-04-10T07:39:05;13.10;;;8.35;;
25717;SDS011;13574;52.040;5.692;2023-04-10T07:41:31;11.57;;;7.93;;
25717;SDS011;13574;52.040;5.692;2023-04-10T07:43:56;11.05;;;8.00;;
25717;SDS011;13574;52.040;5.692;2023-04-10T07:46:22;12.77;;;8.40;;
25717;SDS011;13574;52.040;5.692;2023-04-10T07:48:48;11.18;;;8.07;;
25717;SDS011;13574;52.040;5.692;2023-04-10T07:51:14;10.98;;;8.18;;
25717;SDS011;13574;52.040;5.692;2023-04-10T07:53:40;11.27;;;7.78;;
25717;SDS011;13574;52.040;5.692;2023-04-10T07:56:06;11.55;;;8.07;;
25717;SDS011;13574;52.040;5.692;2023-04-10T07:58:32;12.00;;;7.80;;
25717;SDS011;13574;52.040;5.692;2023-04-10T08:00:58;11.68;;;8.00;;
25717;SDS011;13574;52.040;5.692;2023-04-10T08:03:24;14.50;;;8.30;;
25717;SDS011;13574;52.040;5.692;2023-04-10T08:05:50;12.60;;;8.00;;
25717;SDS011;13574;52.040;5.692;2023-04-10T08:08:16;13.15;;;8.38;;
25717;SDS011;13574;52.040;5.692;2023-04-10T08:10:42;11.27;;;8.18;;
25717;SDS011;13574;52.040;5.692;2023-04-10T08:13:07;12.65;;;8.00;;
25717;SDS011;13574;52.040;5.692;2023-04-10T08:15:33;11.10;;;8.00;;
25717;SDS011;13574;52.040;5.692;2023-04-10T08:17:59;13.30;;;8.20;;
25717;SDS011;13574;52.040;5.692;2023-04-10T08:20:25;10.70;;;8.10;;
25717;SDS011;13574;52.040;5.692;2023-04-10T08:22:51;11.40;;;8.10;;
25717;SDS011;13574;52.040;5.692;2023-04-10T08:25:18;10.85;;;7.95;;
25717;SDS011;13574;52.040;5.692;2023-04-10T08:27:44;10.80;;;8.18;;
25717;SDS011;13574;52.040;5.692;2023-04-10T08:30:09;10.32;;;7.88;;
25717;SDS011;13574;52.040;5.692;2023-04-10T08:32:35;9.70;;;7.60;;
25717;SDS011;13574;52.040;5.692;2023-04-10T08:35:03;10.40;;;7.68;;
25717;SDS011;13574;52.040;5.692;2023-04-10T08:37:29;11.98;;;8.02;;
25717;SDS011;13574;52.040;5.692;2023-04-10T08:39:55;12.32;;;7.82;;
25717;SDS011;13574;52.040;5.692;2023-04-10T08:42:21;10.98;;;8.02;;
25717;SDS011;13574;52.040;5.692;2023-04-10T08:44:47;11.52;;;8.40;;
25717;SDS011;13574;52.040;5.692;2023-04-10T08:47:14;11.98;;;8.07;;
25717;SDS011;13574;52.040;5.692;2023-04-10T08:52:24;11.95;;;8.65;;
25717;SDS011;13574;52.040;5.692;2023-04-10T08:54:55;21.13;;;9.02;;
25717;SDS011;13574;52.040;5.692;2023-04-10T08:57:23;12.95;;;8.65;;
25717;SDS011;13574;52.040;5.692;2023-04-10T08:59:51;17.42;;;9.10;;
25717;SDS011;13574;52.040;5.692;2023-04-10T09:02:17;61.22;;;10.45;;
25717;SDS011;13574;52.040;5.692;2023-04-10T09:04:47;19.23;;;9.65;;
25717;SDS011;13574;52.040;5.692;2023-04-10T09:07:15;13.65;;;9.05;;
25717;SDS011;13574;52.040;5.692;2023-04-10T09:09:41;11.05;;;8.80;;
25717;SDS011;13574;52.040;5.692;2023-04-10T09:12:07;11.68;;;8.27;;
25717;SDS011;13574;52.040;5.692;2023-04-10T09:14:33;11.90;;;8.55;;
25717;SDS011;13574;52.040;5.692;2023-04-10T09:17:21;12.55;;;8.68;;
25717;SDS011;13574;52.040;5.692;2023-04-10T09:19:48;12.93;;;8.95;;
25717;SDS011;13574;52.040;5.692;2023-04-10T09:22:17;11.45;;;8.65;;
25717;SDS011;13574;52.040;5.692;2023-04-10T09:24:57;11.32;;;8.30;;
25717;SDS011;13574;52.040;5.692;2023-04-10T09:29:55;12.50;;;8.60;;
25717;SDS011;13574;52.040;5.692;2023-04-10T09:32:54;14.93;;;9.05;;
25717;SDS011;13574;52.040;5.692;2023-04-10T09:35:13;16.45;;;8.48;;
25717;SDS011;13574;52.040;5.692;2023-04-10T09:37:40;11.70;;;8.40;;
25717;SDS011;13574;52.040;5.692;2023-04-10T09:40:21;10.73;;;8.27;;
25717;SDS011;13574;52.040;5.692;2023-04-10T09:42:51;13.80;;;9.13;;
25717;SDS011;13574;52.040;5.692;2023-04-10T09:45:17;11.40;;;8.13;;
25717;SDS011;13574;52.040;5.692;2023-04-10T09:48:00;16.48;;;8.60;;
25717;SDS011;13574;52.040;5.692;2023-04-10T09:50:36;12.70;;;8.50;;
25717;SDS011;13574;52.040;5.692;2023-04-10T09:53:04;11.50;;;8.57;;
25717;SDS011;13574;52.040;5.692;2023-04-10T09:55:30;11.10;;;8.20;;
25717;SDS011;13574;52.040;5.692;2023-04-10T09:57:58;10.80;;;7.57;;
25717;SDS011;13574;52.040;5.692;2023-04-10T10:00:24;12.18;;;8.45;;
25717;SDS011;13574;52.040;5.692;2023-04-10T10:02:50;14.27;;;8.15;;
25717;SDS011;13574;52.040;5.692;2023-04-10T10:05:17;13.80;;;8.30;;
25717;SDS011;13574;52.040;5.692;2023-04-10T10:07:44;12.02;;;7.88;;
25717;SDS011;13574;52.040;5.692;2023-04-10T10:10:10;11.18;;;7.68;;
25717;SDS011;13574;52.040;5.692;2023-04-10T10:12:43;10.73;;;8.23;;
25717;SDS011;13574;52.040;5.692;2023-04-10T10:15:22;10.23;;;7.63;;
25717;SDS011;13574;52.040;5.692;2023-04-10T10:18:16;9.95;;;7.00;;
25717;SDS011;13574;52.040;5.692;2023-04-10T10:20:58;10.85;;;7.45;;
25717;SDS011;13574;52.040;5.692;2023-04-10T10:23:25;10.05;;;7.40;;
25717;SDS011;13574;52.040;5.692;2023-04-10T10:25:53;10.20;;;7.35;;
25717;SDS011;13574;52.040;5.692;2023-04-10T10:28:20;9.98;;;7.18;;
25717;SDS011;13574;52.040;5.692;2023-04-10T10:30:46;10.77;;;7.63;;
25717;SDS011;13574;52.040;5.692;2023-04-10T10:33:15;9.93;;;7.28;;
25717;SDS011;13574;52.040;5.692;2023-04-10T10:35:42;10.70;;;7.75;;
25717;SDS011;13574;52.040;5.692;2023-04-10T10:38:08;10.15;;;7.05;;
25717;SDS011;13574;52.040;5.692;2023-04-10T10:40:46;10.82;;;7.50;;
25717;SDS011;13574;52.040;5.692;2023-04-10T10:46:39;10.45;;;7.10;;
25717;SDS011;13574;52.040;5.692;2023-04-10T10:49:10;9.43;;;7.03;;
25717;SDS011;13574;52.040;5.692;2023-04-10T10:51:49;9.68;;;7.45;;
25717;SDS011;13574;52.040;5.692;2023-04-10T10:56:59;12.50;;;7.63;;
25717;SDS011;13574;52.040;5.692;2023-04-10T11:02:17;11.05;;;7.20;;
25717;SDS011;13574;52.040;5.692;2023-04-10T11:04:44;9.43;;;7.32;;
25717;SDS011;13574;52.040;5.692;2023-04-10T11:07:11;10.70;;;7.13;;
25717;SDS011;13574;52.040;5.692;2023-04-10T11:09:48;12.57;;;7.65;;
25717;SDS011;13574;52.040;5.692;2023-04-10T11:12:17;10.52;;;7.40;;
25717;SDS011;13574;52.040;5.692;2023-04-10T11:14:54;8.63;;;6.97;;
25717;SDS011;13574;52.040;5.692;2023-04-10T11:20:17;9.63;;;7.50;;
25717;SDS011;13574;52.040;5.692;2023-04-10T11:25:47;9.15;;;7.07;;
25717;SDS011;13574;52.040;5.692;2023-04-10T11:28:33;8.80;;;6.95;;
25717;SDS011;13574;52.040;5.692;2023-04-10T11:31:19;9.52;;;7.00;;
25717;SDS011;13574;52.040;5.692;2023-04-10T11:33:47;9.18;;;6.78;;
25717;SDS011;13574;52.040;5.692;2023-04-10T11:36:14;9.65;;;6.82;;
25717;SDS011;13574;52.040;5.692;2023-04-10T11:38:52;8.60;;;6.63;;
25717;SDS011;13574;52.040;5.692;2023-04-10T11:43:55;8.85;;;6.57;;
25717;SDS011;13574;52.040;5.692;2023-04-10T11:46:24;8.85;;;7.00;;
25717;SDS011;13574;52.040;5.692;2023-04-10T11:49:00;9.50;;;7.10;;
25717;SDS011;13574;52.040;5.692;2023-04-10T11:51:27;10.20;;;7.28;;
25717;SDS011;13574;52.040;5.692;2023-04-10T11:54:03;9.75;;;6.40;;
25717;SDS011;13574;52.040;5.692;2023-04-10T11:56:39;8.98;;;6.70;;
25717;SDS011;13574;52.040;5.692;2023-04-10T11:59:07;9.77;;;6.82;;
25717;SDS011;13574;52.040;5.692;2023-04-10T12:01:40;10.18;;;6.45;;
25717;SDS011;13574;52.040;5.692;2023-04-10T12:04:13;9.32;;;6.05;;
25717;SDS011;13574;52.040;5.692;2023-04-10T12:06:43;9.15;;;6.93;;
25717;SDS011;13574;52.040;5.692;2023-04-10T12:09:20;8.18;;;6.63;;
25717;SDS011;13574;52.040;5.692;2023-04-10T12:11:47;9.10;;;6.28;;
25717;SDS011;13574;52.040;5.692;2023-04-10T12:14:17;9.60;;;6.57;;
25717;SDS011;13574;52.040;5.692;2023-04-10T12:16:44;8.45;;;6.20;;
25717;SDS011;13574;52.040;5.692;2023-04-10T12:19:11;9.85;;;6.32;;
25717;SDS011;13574;52.040;5.692;2023-04-10T12:21:38;7.97;;;5.47;;
25717;SDS011;13574;52.040;5.692;2023-04-10T12:26:34;7.72;;;5.55;;
25717;SDS011;13574;52.040;5.692;2023-04-10T12:29:00;6.65;;;5.47;;
25717;SDS011;13574;52.040;5.692;2023-04-10T12:31:26;8.40;;;5.70;;
25717;SDS011;13574;52.040;5.692;2023-04-10T12:33:59;7.60;;;5.55;;
25717;SDS011;13574;52.040;5.692;2023-04-10T12:36:27;7.00;;;5.15;;
25717;SDS011;13574;52.040;5.692;2023-04-10T12:38:54;5.90;;;5.07;;
25717;SDS011;13574;52.040;5.692;2023-04-10T12:41:22;10.95;;;5.45;;
25717;SDS011;13574;52.040;5.692;2023-04-10T12:43:49;7.22;;;4.93;;
25717;SDS011;13574;52.040;5.692;2023-04-10T12:46:26;6.32;;;4.90;;
25717;SDS011;13574;52.040;5.692;2023-04-10T12:48:53;7.88;;;4.75;;
25717;SDS011;13574;52.040;5.692;2023-04-10T12:51:39;7.18;;;4.70;;
25717;SDS011;13574;52.040;5.692;2023-04-10T12:54:09;5.78;;;4.47;;
25717;SDS011;13574;52.040;5.692;2023-04-10T12:56:42;6.57;;;4.40;;
25717;SDS011;13574;52.040;5.692;2023-04-10T12:59:08;5.30;;;4.38;;
25717;SDS011;13574;52.040;5.692;2023-04-10T13:01:36;6.28;;;4.53;;
25717;SDS011;13574;52.040;5.692;2023-04-10T13:04:02;4.82;;;3.92;;
25717;SDS011;13574;52.040;5.692;2023-04-10T13:06:28;7.50;;;4.13;;
25717;SDS011;13574;52.040;5.692;2023-04-10T13:08:54;8.10;;;4.50;;
25717;SDS011;13574;52.040;5.692;2023-04-10T13:11:20;5.40;;;3.95;;
25717;SDS011;13574;52.040;5.692;2023-04-10T13:13:47;5.28;;;4.15;;
25717;SDS011;13574;52.040;5.692;2023-04-10T13:16:13;6.90;;;4.30;;
25717;SDS011;13574;52.040;5.692;2023-04-10T13:18:40;6.50;;;4.15;;
25717;SDS011;13574;52.040;5.692;2023-04-10T13:21:06;6.22;;;4.40;;
25717;SDS011;13574;52.040;5.692;2023-04-10T13:23:31;9.65;;;4.10;;
25717;SDS011;13574;52.040;5.692;2023-04-10T13:25:57;5.57;;;4.30;;
25717;SDS011;13574;52.040;5.692;2023-04-10T13:28:23;8.18;;;4.38;;
25717;SDS011;13574;52.040;5.692;2023-04-10T13:30:49;4.90;;;3.90;;
25717;SDS011;13574;52.040;5.692;2023-04-10T13:33:16;4.70;;;3.97;;
25717;SDS011;13574;52.040;5.692;2023-04-10T13:35:41;6.65;;;3.72;;
25717;SDS011;13574;52.040;5.692;2023-04-10T13:38:07;6.50;;;4.10;;
25717;SDS011;13574;52.040;5.692;2023-04-10T13:40:35;5.13;;;3.80;;
25717;SDS011;13574;52.040;5.692;2023-04-10T13:43:01;5.95;;;3.63;;
25717;SDS011;13574;52.040;5.692;2023-04-10T13:45:27;5.53;;;3.55;;
25717;SDS011;13574;52.040;5.692;2023-04-10T13:47:52;4.90;;;3.85;;
25717;SDS011;13574;52.040;5.692;2023-04-10T13:50:18;17.80;;;4.05;;
25717;SDS011;13574;52.040;5.692;2023-04-10T13:52:44;4.97;;;3.78;;
25717;SDS011;13574;52.040;5.692;2023-04-10T13:55:10;5.13;;;3.80;;
25717;SDS011;13574;52.040;5.692;2023-04-10T13:57:35;6.18;;;3.95;;
25717;SDS011;13574;52.040;5.692;2023-04-10T14:00:02;5.00;;;3.80;;
25717;SDS011;13574;52.040;5.692;2023-04-10T14:02:28;6.78;;;3.83;;
25717;SDS011;13574;52.040;5.692;2023-04-10T14:04:54;6.15;;;3.92;;
25717;SDS011;13574;52.040;5.692;2023-04-10T14:07:20;4.22;;;3.55;;
25717;SDS011;13574;52.040;5.692;2023-04-10T14:09:45;6.43;;;4.10;;
25717;SDS011;13574;52.040;5.692;2023-04-10T14:12:12;5.43;;;4.05;;
25717;SDS011;13574;52.040;5.692;2023-04-10T14:14:41;4.35;;;3.38;;
25717;SDS011;13574;52.040;5.692;2023-04-10T14:17:08;6.50;;;4.03;;
25717;SDS011;13574;52.040;5.692;2023-04-10T14:19:33;5.75;;;3.63;;
25717;SDS011;13574;52.040;5.692;2023-04-10T14:22:00;5.32;;;4.10;;
25717;SDS011;13574;52.040;5.692;2023-04-10T14:24:26;5.70;;;3.90;;
25717;SDS011;13574;52.040;5.692;2023-04-10T14:26:51;4.18;;;3.58;;
25717;SDS011;13574;52.040;5.692;2023-04-10T14:29:21;5.45;;;3.78;;
25717;SDS011;13574;52.040;5.692;2023-04-10T14:31:48;6.32;;;3.65;;
25717;SDS011;13574;52.040;5.692;2023-04-10T14:34:15;4.82;;;3.42;;
25717;SDS011;13574;52.040;5.692;2023-04-10T14:36:41;5.28;;;4.22;;
25717;SDS011;13574;52.040;5.692;2023-04-10T14:39:07;5.95;;;3.72;;
25717;SDS011;13574;52.040;5.692;2023-04-10T14:41:33;4.78;;;3.90;;
25717;SDS011;13574;52.040;5.692;2023-04-10T14:43:58;4.65;;;3.78;;
25717;SDS011;13574;52.040;5.692;2023-04-10T14:46:24;6.45;;;3.88;;
25717;SDS011;13574;52.040;5.692;2023-04-10T14:48:50;5.28;;;3.85;;
25717;SDS011;13574;52.040;5.692;2023-04-10T14:51:15;6.60;;;4.10;;
25717;SDS011;13574;52.040;5.692;2023-04-10T14:53:41;6.75;;;4.00;;
25717;SDS011;13574;52.040;5.692;2023-04-10T14:56:10;8.65;;;4.30;;
25717;SDS011;13574;52.040;5.692;2023-04-10T14:58:36;6.40;;;4.63;;
25717;SDS011;13574;52.040;5.692;2023-04-10T15:01:02;10.10;;;5.00;;
25717;SDS011;13574;52.040;5.692;2023-04-10T15:03:31;6.40;;;4.50;;
25717;SDS011;13574;52.040;5.692;2023-04-10T15:05:58;6.50;;;4.93;;
25717;SDS011;13574;52.040;5.692;2023-04-10T15:08:25;5.93;;;4.78;;
25717;SDS011;13574;52.040;5.692;2023-04-10T15:10:50;6.68;;;4.93;;
25717;SDS011;13574;52.040;5.692;2023-04-10T15:13:17;7.30;;;5.28;;
25717;SDS011;13574;52.040;5.692;2023-04-10T15:15:44;6.65;;;4.85;;
25717;SDS011;13574;52.040;5.692;2023-04-10T15:18:10;6.75;;;5.05;;